createdAt,value
2018-10-09T00:00:55.590Z,59.51
2018-10-09T00:01:55.424Z,60.08
2018-10-09T00:02:55.329Z,60.17
2018-10-09T00:03:55.233Z,59.99
2018-10-09T00:04:55.158Z,60.08
2018-10-09T00:05:55.043Z,60.55
2018-10-09T00:06:54.950Z,59.60
2018-10-09T00:07:54.853Z,59.99
2018-10-09T00:08:54.758Z,60.27
2018-10-09T00:09:54.680Z,59.79
2018-10-09T00:10:54.570Z,60.46
2018-10-09T00:11:54.470Z,61.13
2018-10-09T00:12:54.376Z,60.94
2018-10-09T00:13:54.283Z,60.17
2018-10-09T00:14:54.202Z,58.94
2018-10-09T00:15:54.092Z,59.03
2018-10-09T00:16:53.996Z,58.55
2018-10-09T00:17:53.903Z,58.26
2018-10-09T00:18:53.809Z,58.55
2018-10-09T00:19:53.725Z,58.94
2018-10-09T00:20:53.616Z,58.94
2018-10-09T00:21:53.518Z,58.46
2018-10-09T00:22:53.423Z,58.17
2018-10-09T00:23:53.327Z,58.36
2018-10-09T00:24:53.363Z,58.55
2018-10-09T00:25:53.193Z,58.62
2018-10-09T00:26:53.044Z,59.19
2018-10-09T00:27:52.950Z,58.62
2018-10-09T00:28:52.851Z,58.52
2018-10-09T00:29:52.758Z,58.33
2018-10-09T00:30:52.683Z,57.86
2018-10-09T00:31:52.679Z,58.81
2018-10-09T00:32:52.474Z,58.91
2018-10-09T00:33:52.376Z,58.14
2018-10-09T00:34:52.301Z,58.52
2018-10-09T00:35:52.184Z,59.16
2018-10-09T00:36:52.091Z,59.26
2018-10-09T00:37:51.993Z,59.45
2018-10-09T00:38:52.006Z,58.59
2018-10-09T00:39:51.809Z,59.06
2018-10-09T00:40:51.724Z,58.02
2018-10-09T00:41:51.613Z,57.45
2018-10-09T00:42:51.524Z,57.73
2018-10-09T00:43:51.422Z,57.07
2018-10-09T00:44:51.329Z,56.40
2018-10-09T00:45:51.356Z,56.11
2018-10-09T00:46:51.137Z,54.11
2018-10-09T00:47:51.041Z,52.20
2018-10-09T00:48:50.949Z,51.16
2018-10-09T00:49:50.852Z,49.44
2018-10-09T00:50:50.771Z,49.06
2018-10-09T00:51:50.661Z,48.58
2018-10-09T00:52:50.670Z,49.35
2018-10-09T00:53:50.468Z,49.26
2018-10-09T00:54:50.374Z,48.97
2018-10-09T00:55:50.300Z,49.26
2018-10-09T00:56:50.189Z,50.09
2018-10-09T00:57:50.086Z,50.66
2018-10-09T00:58:49.993Z,51.42
2018-10-09T00:59:50.002Z,50.94
2018-10-09T01:00:49.819Z,50.85
2018-10-09T01:01:49.707Z,50.27
2018-10-09T01:02:49.613Z,50.56
2018-10-09T01:03:49.515Z,49.90
2018-10-09T01:04:49.419Z,50.66
2018-10-09T01:05:49.343Z,50.56
2018-10-09T01:06:49.337Z,49.13
2018-10-09T01:07:49.133Z,48.92
2018-10-09T01:08:49.083Z,49.01
2018-10-09T01:09:48.941Z,48.82
2018-10-09T01:10:48.893Z,49.77
2018-10-09T01:11:48.753Z,49.96
2018-10-09T01:12:48.658Z,49.96
2018-10-09T01:13:48.668Z,49.58
2018-10-09T01:14:48.465Z,49.58
2018-10-09T01:15:48.387Z,49.40
2018-10-09T01:16:48.276Z,49.01
2018-10-09T01:17:48.178Z,48.44
2018-10-09T01:18:48.082Z,47.30
2018-10-09T01:19:47.989Z,45.97
2018-10-09T01:20:47.991Z,45.21
2018-10-09T01:21:47.796Z,44.92
2018-10-09T01:22:47.699Z,44.73
2018-10-09T01:23:47.603Z,44.54
2018-10-09T01:24:47.509Z,43.87
2018-10-09T01:25:47.427Z,43.78
2018-10-09T01:26:47.322Z,43.59
2018-10-09T01:27:47.327Z,43.11
2018-10-09T01:28:47.123Z,42.73
2018-10-09T01:29:47.028Z,41.88
2018-10-09T01:30:46.950Z,40.92
2018-10-09T01:31:46.840Z,40.54
2018-10-09T01:32:46.742Z,39.78
2018-10-09T01:33:46.645Z,39.97
2018-10-09T01:34:46.549Z,39.40
2018-10-09T01:35:46.469Z,38.07
2018-10-09T01:36:46.359Z,37.88
2018-10-09T01:37:46.261Z,37.69
2018-10-09T01:38:46.168Z,37.12
2018-10-09T01:39:46.071Z,37.02
2018-10-09T01:40:46.001Z,37.12
2018-10-09T01:41:45.877Z,37.78
2018-10-09T01:42:45.783Z,37.59
2018-10-09T01:43:45.686Z,37.38
2018-10-09T01:44:45.591Z,37.48
2018-10-09T01:45:45.514Z,38.34
2018-10-09T01:46:45.398Z,38.34
2018-10-09T01:47:45.304Z,37.76
2018-10-09T01:48:45.206Z,38.24
2018-10-09T01:49:45.110Z,38.34
2018-10-09T01:50:45.033Z,37.86
2018-10-09T01:51:44.919Z,37.48
2018-10-09T01:52:44.822Z,37.19
2018-10-09T01:53:44.730Z,37.00
2018-10-09T01:54:44.631Z,36.81
2018-10-09T01:55:44.554Z,36.24
2018-10-09T01:56:44.439Z,35.86
2018-10-09T01:57:44.346Z,35.19
2018-10-09T01:58:44.252Z,35.67
2018-10-09T01:59:44.152Z,35.58
2018-10-09T02:00:44.073Z,36.79
2018-10-09T02:01:43.964Z,36.79
2018-10-09T02:02:43.862Z,36.41
2018-10-09T02:03:43.767Z,36.22
2018-10-09T02:04:43.670Z,35.94
2018-10-09T02:05:43.591Z,35.67
2018-10-09T02:06:43.478Z,34.91
2018-10-09T02:07:43.380Z,34.72
2018-10-09T02:08:43.284Z,34.34
2018-10-09T02:09:43.187Z,33.29
2018-10-09T02:10:43.109Z,32.43
2018-10-09T02:11:42.995Z,31.48
2018-10-09T02:12:42.899Z,31.20
2018-10-09T02:13:42.804Z,30.34
2018-10-09T02:14:42.705Z,30.25
2018-10-09T02:15:42.628Z,30.15
2018-10-09T02:16:42.525Z,29.58
2018-10-09T02:17:42.416Z,29.20
2018-10-09T02:18:42.320Z,28.92
2018-10-09T02:19:42.224Z,26.92
2018-10-09T02:20:42.130Z,25.87
2018-10-09T02:21:42.050Z,25.87
2018-10-09T02:22:41.934Z,25.78
2018-10-09T02:23:41.838Z,26.16
2018-10-09T02:24:41.743Z,26.14
2018-10-09T02:25:41.647Z,25.48
2018-10-09T02:26:41.565Z,25.78
2018-10-09T02:27:41.452Z,25.87
2018-10-09T02:28:41.355Z,25.49
2018-10-09T02:29:41.260Z,24.35
2018-10-09T02:30:41.165Z,23.22
2018-10-09T02:31:41.083Z,22.74
2018-10-09T02:32:40.973Z,22.65
2018-10-09T02:33:40.968Z,22.08
2018-10-09T02:34:40.776Z,21.78
2018-10-09T02:35:40.685Z,21.97
2018-10-09T02:36:40.600Z,22.16
2018-10-09T02:37:40.486Z,22.16
2018-10-09T02:38:40.391Z,22.16
2018-10-09T02:39:40.296Z,22.26
2018-10-09T02:40:40.199Z,22.35
2018-10-09T02:41:40.118Z,22.16
2018-10-09T02:42:40.011Z,22.35
2018-10-09T02:43:39.908Z,22.06
2018-10-09T02:44:39.820Z,21.88
2018-10-09T02:45:39.716Z,21.40
2018-10-09T02:46:39.635Z,21.12
2018-10-09T02:47:39.521Z,20.83
2018-10-09T02:48:39.426Z,19.98
2018-10-09T02:49:39.337Z,19.78
2018-10-09T02:50:39.234Z,20.44
2018-10-09T02:51:39.152Z,21.11
2018-10-09T02:52:39.042Z,21.39
2018-10-09T02:53:38.945Z,21.39
2018-10-09T02:54:38.846Z,21.20
2018-10-09T02:55:38.755Z,21.11
2018-10-09T02:56:38.669Z,21.01
2018-10-09T02:57:38.558Z,21.11
2018-10-09T02:58:38.459Z,20.63
2018-10-09T02:59:38.372Z,20.25
2018-10-09T03:00:38.265Z,20.82
2018-10-09T03:01:38.188Z,20.53
2018-10-09T03:02:38.078Z,20.82
2018-10-09T03:03:37.980Z,21.01
2018-10-09T03:04:37.882Z,20.44
2018-10-09T03:05:37.783Z,20.15
2018-10-09T03:06:37.702Z,20.25
2018-10-09T03:07:37.592Z,20.17
2018-10-09T03:08:37.560Z,19.98
2018-10-09T03:09:37.395Z,19.78
2018-10-09T03:10:37.300Z,19.31
2018-10-09T03:11:37.324Z,19.12
2018-10-09T03:12:37.108Z,19.02
2018-10-09T03:13:37.012Z,18.36
2018-10-09T03:14:36.914Z,18.84
2018-10-09T03:15:36.817Z,18.93
2018-10-09T03:16:36.738Z,19.21
2018-10-09T03:17:36.623Z,19.02
2018-10-09T03:18:36.654Z,19.21
2018-10-09T03:19:36.431Z,19.59
2018-10-09T03:20:36.363Z,19.39
2018-10-09T03:21:36.256Z,19.78
2018-10-09T03:22:36.143Z,19.78
2018-10-09T03:23:36.049Z,19.59
2018-10-09T03:24:35.952Z,19.59
2018-10-09T03:25:35.961Z,19.87
2018-10-09T03:26:35.772Z,19.96
2018-10-09T03:27:35.659Z,19.87
2018-10-09T03:28:35.586Z,19.78
2018-10-09T03:29:35.468Z,20.34
2018-10-09T03:30:35.372Z,20.15
2018-10-09T03:31:35.291Z,20.15
2018-10-09T03:32:35.177Z,20.25
2018-10-09T03:33:35.081Z,20.53
2018-10-09T03:34:34.982Z,20.53
2018-10-09T03:35:34.888Z,20.53
2018-10-09T03:36:34.811Z,20.44
2018-10-09T03:37:34.694Z,20.44
2018-10-09T03:38:34.598Z,20.36
2018-10-09T03:39:34.503Z,20.54
2018-10-09T03:40:34.404Z,20.36
2018-10-09T03:41:34.324Z,20.83
2018-10-09T03:42:34.211Z,20.54
2018-10-09T03:43:34.115Z,20.26
2018-10-09T03:44:34.017Z,20.17
2018-10-09T03:45:33.920Z,20.07
2018-10-09T03:46:33.840Z,20.17
2018-10-09T03:47:33.732Z,20.17
2018-10-09T03:48:33.654Z,20.36
2018-10-09T03:49:33.535Z,20.54
2018-10-09T03:50:33.438Z,20.45
2018-10-09T03:51:33.358Z,20.26
2018-10-09T03:52:33.245Z,20.26
2018-10-09T03:53:33.149Z,19.59
2018-10-09T03:54:33.054Z,19.01
2018-10-09T03:55:32.959Z,18.16
2018-10-09T03:56:32.879Z,17.60
2018-10-09T03:57:32.764Z,17.31
2018-10-09T03:58:32.668Z,16.83
2018-10-09T03:59:32.567Z,16.46
2018-10-09T04:00:32.474Z,16.36
2018-10-09T04:01:32.394Z,15.88
2018-10-09T04:02:32.281Z,15.50
2018-10-09T04:03:32.183Z,15.22
2018-10-09T04:04:32.085Z,14.46
2018-10-09T04:05:31.989Z,14.28
2018-10-09T04:06:31.903Z,13.51
2018-10-09T04:07:31.813Z,13.13
2018-10-09T04:08:31.703Z,12.56
2018-10-09T04:09:31.677Z,12.27
2018-10-09T04:10:31.814Z,11.14
2018-10-09T04:11:31.416Z,10.95
2018-10-09T04:12:31.362Z,10.38
2018-10-09T04:13:31.219Z,10.66
2018-10-09T04:14:31.122Z,10.85
2018-10-09T04:15:31.025Z,10.75
2018-10-09T04:16:30.931Z,10.66
2018-10-09T04:17:30.850Z,10.38
2018-10-09T04:18:30.739Z,10.38
2018-10-09T04:19:30.658Z,10.00
2018-10-09T04:20:30.542Z,10.38
2018-10-09T04:21:30.448Z,10.38
2018-10-09T04:22:30.469Z,10.19
2018-10-09T04:23:30.252Z,10.19
2018-10-09T04:24:30.158Z,10.48
2018-10-09T04:25:30.060Z,10.85
2018-10-09T04:26:29.966Z,10.57
2018-10-09T04:27:29.891Z,10.76
2018-10-09T04:28:29.771Z,11.43
2018-10-09T04:29:29.850Z,11.91
2018-10-09T04:30:29.579Z,11.99
2018-10-09T04:31:29.484Z,12.48
2018-10-09T04:32:29.404Z,12.47
2018-10-09T04:33:29.308Z,12.66
2018-10-09T04:34:29.198Z,12.19
2018-10-09T04:35:29.122Z,12.66
2018-10-09T04:36:29.005Z,12.85
2018-10-09T04:37:28.923Z,13.04
2018-10-09T04:38:28.812Z,12.76
2018-10-09T04:39:28.713Z,13.62
2018-10-09T04:40:28.621Z,14.00
2018-10-09T04:41:28.524Z,14.18
2018-10-09T04:42:28.444Z,14.28
2018-10-09T04:43:28.329Z,14.28
2018-10-09T04:44:28.233Z,14.85
2018-10-09T04:45:28.151Z,14.95
2018-10-09T04:46:28.042Z,15.42
2018-10-09T04:47:27.961Z,16.09
2018-10-09T04:48:27.850Z,16.19
2018-10-09T04:49:27.755Z,16.85
2018-10-09T04:50:27.656Z,17.22
2018-10-09T04:51:27.560Z,18.08
2018-10-09T04:52:27.481Z,17.99
2018-10-09T04:53:27.367Z,18.18
2018-10-09T04:54:27.272Z,18.27
2018-10-09T04:55:27.176Z,19.13
2018-10-09T04:56:27.080Z,19.42
2018-10-09T04:57:27.001Z,19.51
2018-10-09T04:58:26.888Z,20.27
2018-10-09T04:59:26.792Z,20.46
2018-10-09T05:00:26.697Z,20.08
2018-10-09T05:01:26.598Z,20.08
2018-10-09T05:02:26.521Z,19.79
2018-10-09T05:03:26.409Z,19.89
2018-10-09T05:04:26.311Z,20.08
2018-10-09T05:05:26.216Z,20.37
2018-10-09T05:06:26.135Z,20.75
2018-10-09T05:07:26.042Z,20.84
2018-10-09T05:08:25.927Z,21.12
2018-10-09T05:09:25.830Z,21.41
2018-10-09T05:10:25.734Z,21.60
2018-10-09T05:11:25.639Z,21.60
2018-10-09T05:12:25.560Z,21.98
2018-10-09T05:13:25.445Z,22.08
2018-10-09T05:14:25.350Z,22.46
2018-10-09T05:15:25.255Z,22.65
2018-10-09T05:16:25.158Z,22.94
2018-10-09T05:17:25.078Z,23.32
2018-10-09T05:18:24.965Z,23.21
2018-10-09T05:19:24.869Z,23.59
2018-10-09T05:20:24.777Z,24.16
2018-10-09T05:21:24.677Z,24.16
2018-10-09T05:22:24.596Z,24.63
2018-10-09T05:23:24.489Z,25.21
2018-10-09T05:24:24.389Z,25.78
2018-10-09T05:25:24.291Z,26.25
2018-10-09T05:26:24.196Z,26.54
2018-10-09T05:27:24.119Z,27.11
2018-10-09T05:28:24.005Z,28.05
2018-10-09T05:29:23.907Z,28.52
2018-10-09T05:30:23.813Z,29.75
2018-10-09T05:31:23.810Z,31.47
2018-10-09T05:32:23.639Z,32.88
2018-10-09T05:33:23.522Z,34.88
2018-10-09T05:34:23.430Z,36.21
2018-10-09T05:35:23.332Z,37.54
2018-10-09T05:36:23.234Z,38.01
2018-10-09T05:37:23.154Z,38.68
2018-10-09T05:38:23.045Z,38.58
2018-10-09T05:39:22.946Z,38.68
2018-10-09T05:40:22.848Z,38.68
2018-10-09T05:41:22.753Z,38.58
2018-10-09T05:42:22.673Z,38.48
2018-10-09T05:43:22.563Z,37.73
2018-10-09T05:44:22.523Z,37.54
2018-10-09T05:45:22.367Z,37.25
2018-10-09T05:46:22.268Z,37.25
2018-10-09T05:47:22.196Z,36.96
2018-10-09T05:48:22.076Z,36.68
2018-10-09T05:49:21.977Z,36.11
2018-10-09T05:50:21.883Z,36.02
2018-10-09T05:51:21.790Z,35.54
2018-10-09T05:52:21.834Z,36.04
2018-10-09T05:53:21.591Z,35.35
2018-10-09T05:54:21.496Z,35.17
2018-10-09T05:55:21.398Z,35.37
2018-10-09T05:56:21.320Z,35.56
2018-10-09T05:57:21.207Z,35.56
2018-10-09T05:58:21.124Z,35.37
2018-10-09T05:59:21.126Z,35.17
2018-10-09T06:00:20.916Z,35.56
2018-10-09T06:01:20.817Z,35.37
2018-10-09T06:02:20.722Z,35.75
2018-10-09T06:03:20.639Z,35.84
2018-10-09T06:04:20.527Z,35.94
2018-10-09T06:05:20.429Z,35.65
2018-10-09T06:06:20.467Z,36.04
2018-10-09T06:07:20.246Z,36.04
2018-10-09T06:08:20.159Z,36.41
2018-10-09T06:09:20.044Z,36.41
2018-10-09T06:10:19.947Z,36.22
2018-10-09T06:11:19.851Z,36.41
2018-10-09T06:12:19.757Z,36.41
2018-10-09T06:13:19.782Z,36.51
2018-10-09T06:14:19.564Z,36.72
2018-10-09T06:15:19.489Z,36.43
2018-10-09T06:16:19.369Z,36.24
2018-10-09T06:17:19.276Z,36.55
2018-10-09T06:18:19.191Z,36.83
2018-10-09T06:19:19.086Z,37.02
2018-10-09T06:20:19.087Z,37.61
2018-10-09T06:21:18.888Z,38.95
2018-10-09T06:22:18.970Z,39.25
2018-10-09T06:23:18.714Z,39.82
2018-10-09T06:24:18.604Z,41.16
2018-10-09T06:25:18.514Z,43.08
2018-10-09T06:26:18.412Z,46.70
2018-10-09T06:27:18.421Z,49.68
2018-10-09T06:28:18.245Z,52.92
2018-10-09T06:29:18.124Z,57.22
2018-10-09T06:30:18.030Z,63.89
2018-10-09T06:31:17.937Z,67.99
2018-10-09T06:32:17.840Z,72.51
2018-10-09T06:33:17.762Z,75.47
2018-10-09T06:34:17.758Z,78.62
2018-10-09T06:35:17.557Z,82.24
2018-10-09T06:36:17.465Z,86.49
2018-10-09T06:37:17.423Z,87.15
2018-10-09T06:38:17.293Z,87.92
2018-10-09T06:39:17.182Z,89.54
2018-10-09T06:40:17.094Z,94.84
2018-10-09T06:41:17.103Z,95.03
2018-10-09T06:42:16.904Z,99.90
2018-10-09T06:43:16.835Z,99.99
2018-10-09T06:44:16.760Z,99.99
2018-10-09T06:45:16.624Z,99.99
2018-10-09T06:46:16.570Z,99.99
2018-10-09T06:47:16.441Z,99.99
2018-10-09T06:48:16.471Z,99.99
2018-10-09T06:49:16.262Z,99.99
2018-10-09T06:50:16.166Z,99.99
2018-10-09T06:51:16.078Z,99.99
2018-10-09T06:52:15.981Z,99.99
2018-10-09T06:53:15.946Z,99.99
2018-10-09T06:54:15.944Z,99.99
2018-10-09T06:55:15.821Z,99.99
2018-10-09T06:56:15.619Z,99.99
2018-10-09T06:57:15.531Z,99.99
2018-10-09T06:58:15.455Z,99.99
2018-10-09T06:59:15.352Z,99.99
2018-10-09T07:00:15.268Z,99.99
2018-10-09T07:01:15.170Z,99.99
2018-10-09T07:02:15.188Z,99.99
2018-10-09T07:03:15.014Z,99.99
2018-10-09T07:04:14.907Z,99.99
2018-10-09T07:05:14.812Z,99.99
2018-10-09T07:06:14.723Z,99.99
2018-10-09T07:07:14.637Z,99.99
2018-10-09T07:08:14.563Z,99.99
2018-10-09T07:09:14.462Z,99.99
2018-10-09T07:10:14.364Z,99.99
2018-10-09T07:11:14.397Z,99.99
2018-10-09T07:12:14.188Z,99.99
2018-10-09T07:13:14.117Z,99.99
2018-10-09T07:14:14.008Z,99.99
2018-10-09T07:15:13.922Z,99.99
2018-10-09T07:16:13.951Z,99.99
2018-10-09T07:17:13.746Z,99.99
2018-10-09T07:18:13.671Z,99.99
2018-10-09T07:19:13.564Z,99.99
2018-10-09T07:20:13.480Z,99.99
2018-10-09T07:21:13.387Z,99.99
2018-10-09T07:22:13.298Z,99.99
2018-10-09T07:23:13.233Z,99.99
2018-10-09T07:24:13.123Z,99.99
2018-10-09T07:25:13.034Z,99.99
2018-10-09T07:26:12.947Z,99.99
2018-10-09T07:27:12.858Z,99.99
2018-10-09T07:28:12.786Z,99.99
2018-10-09T07:29:12.684Z,99.99
2018-10-09T07:30:12.591Z,99.99
2018-10-09T07:31:12.502Z,99.99
2018-10-09T07:32:12.415Z,99.99
2018-10-09T07:33:12.343Z,99.99
2018-10-09T07:34:12.239Z,99.99
2018-10-09T07:35:12.147Z,99.99
2018-10-09T07:36:12.064Z,99.99
2018-10-09T07:37:11.972Z,99.99
2018-10-09T07:38:11.888Z,99.99
2018-10-09T07:39:11.842Z,99.99
2018-10-09T07:40:11.709Z,99.99
2018-10-09T07:41:11.621Z,99.99
2018-10-09T07:42:11.536Z,99.99
2018-10-09T07:43:11.464Z,99.99
2018-10-09T07:44:11.398Z,99.99
2018-10-09T07:45:11.273Z,99.99
2018-10-09T07:46:11.181Z,99.99
2018-10-09T07:47:11.094Z,99.99
2018-10-09T07:48:11.010Z,99.99
2018-10-09T07:49:10.937Z,99.99
2018-10-09T07:50:10.831Z,99.99
2018-10-09T07:51:10.744Z,99.99
2018-10-09T07:52:10.655Z,99.99
2018-10-09T07:53:10.570Z,99.99
2018-10-09T07:54:10.495Z,99.99
2018-10-09T07:55:10.388Z,99.99
2018-10-09T07:56:10.300Z,99.99
2018-10-09T07:57:10.217Z,99.99
2018-10-09T07:58:10.131Z,99.99
2018-10-09T07:59:10.057Z,99.99
2018-10-09T08:00:10.458Z,99.99
2018-10-09T08:01:09.870Z,99.99
2018-10-09T08:02:09.781Z,99.99
2018-10-09T08:03:09.697Z,99.99
2018-10-09T08:04:09.625Z,99.99
2018-10-09T08:05:09.523Z,99.99
2018-10-09T08:06:09.434Z,99.99
2018-10-09T08:07:09.350Z,99.99
2018-10-09T08:08:09.261Z,99.99
2018-10-09T08:09:09.189Z,99.99
2018-10-09T08:10:09.090Z,99.99
2018-10-09T08:11:09.004Z,99.99
2018-10-09T08:12:08.915Z,99.99
2018-10-09T08:13:08.828Z,99.99
2018-10-09T08:14:08.759Z,99.99
2018-10-09T08:15:08.659Z,99.99
2018-10-09T08:16:08.573Z,99.99
2018-10-09T08:17:08.489Z,99.99
2018-10-09T08:18:08.398Z,99.99
2018-10-09T08:19:08.334Z,99.99
2018-10-09T08:20:08.231Z,99.99
2018-10-09T08:21:08.146Z,99.99
2018-10-09T08:22:08.057Z,99.99
2018-10-09T08:23:07.971Z,99.99
2018-10-09T08:24:07.903Z,99.99
2018-10-09T08:25:07.802Z,99.99
2018-10-09T08:26:07.715Z,99.99
2018-10-09T08:27:07.631Z,99.99
2018-10-09T08:28:07.676Z,99.99
2018-10-09T08:29:07.476Z,99.99
2018-10-09T08:30:07.378Z,99.99
2018-10-09T08:31:07.296Z,99.99
2018-10-09T08:32:07.221Z,99.99
2018-10-09T08:33:07.121Z,99.99
2018-10-09T08:34:07.047Z,99.99
2018-10-09T08:35:06.949Z,99.99
2018-10-09T08:36:06.862Z,99.99
2018-10-09T08:37:06.776Z,99.99
2018-10-09T08:38:06.686Z,99.99
2018-10-09T08:39:06.724Z,99.99
2018-10-09T08:40:06.537Z,99.99
2018-10-09T08:41:06.433Z,99.99
2018-10-09T08:42:06.346Z,99.55
2018-10-09T08:43:06.259Z,98.29
2018-10-09T08:44:06.198Z,96.85
2018-10-09T08:45:06.090Z,96.89
2018-10-09T08:46:06.155Z,95.93
2018-10-09T08:47:05.925Z,94.87
2018-10-09T08:48:05.834Z,95.01
2018-10-09T08:49:05.765Z,94.82
2018-10-09T08:50:05.662Z,95.01
2018-10-09T08:51:05.576Z,96.84
2018-10-09T08:52:05.531Z,96.31
2018-10-09T08:53:05.511Z,91.83
2018-10-09T08:54:05.339Z,90.19
2018-10-09T08:55:05.246Z,90.95
2018-10-09T08:56:05.160Z,89.70
2018-10-09T08:57:05.079Z,91.53
2018-10-09T08:58:04.989Z,88.83
2018-10-09T08:59:04.981Z,90.03
2018-10-09T09:00:04.924Z,89.84
2018-10-09T09:01:04.738Z,87.33
2018-10-09T09:02:04.656Z,89.59
2018-10-09T09:03:04.570Z,85.63
2018-10-09T09:04:04.503Z,85.19
2018-10-09T09:05:04.409Z,85.10
2018-10-09T09:06:04.342Z,83.01
2018-10-09T09:07:04.341Z,83.36
2018-10-09T09:08:04.159Z,86.41
2018-10-09T09:09:04.089Z,87.08
2018-10-09T09:10:03.991Z,86.11
2018-10-09T09:11:03.909Z,87.08
2018-10-09T09:12:03.825Z,86.60
2018-10-09T09:13:03.742Z,87.67
2018-10-09T09:14:03.860Z,88.02
2018-10-09T09:15:03.581Z,89.56
2018-10-09T09:16:03.495Z,88.93
2018-10-09T09:17:03.413Z,87.53
2018-10-09T09:18:03.330Z,90.15
2018-10-09T09:19:03.266Z,91.74
2018-10-09T09:20:03.174Z,94.24
2018-10-09T09:21:03.241Z,93.43
2018-10-09T09:22:02.998Z,92.22
2018-10-09T09:23:02.917Z,91.93
2018-10-09T09:24:02.851Z,93.86
2018-10-09T09:25:02.749Z,95.59
2018-10-09T09:26:02.709Z,94.39
2018-10-09T09:27:02.744Z,94.54
2018-10-09T09:28:02.623Z,96.70
2018-10-09T09:29:02.419Z,97.42
2018-10-09T09:30:02.348Z,99.40
2018-10-09T09:31:02.248Z,98.77
2018-10-09T09:32:02.167Z,99.93
2018-10-09T09:33:02.113Z,97.72
2018-10-09T09:34:02.000Z,97.28
2018-10-09T09:35:02.046Z,98.92
2018-10-09T09:36:01.827Z,99.21
2018-10-09T09:37:01.743Z,96.99
2018-10-09T09:38:01.656Z,97.09
2018-10-09T09:39:01.620Z,96.80
2018-10-09T09:40:01.508Z,97.67
2018-10-09T09:41:01.404Z,97.86
2018-10-09T09:42:01.325Z,98.05
2018-10-09T09:43:01.555Z,98.10
2018-10-09T09:44:01.161Z,98.92
2018-10-09T09:45:01.091Z,97.47
2018-10-09T09:46:01.152Z,97.81
2018-10-09T09:47:00.898Z,96.46
2018-10-09T09:48:00.821Z,97.81
2018-10-09T09:49:00.733Z,97.14
2018-10-09T09:50:00.663Z,97.86
2018-10-09T09:51:00.575Z,94.87
2018-10-09T09:52:00.529Z,95.59
2018-10-09T09:53:00.392Z,93.85
2018-10-09T09:54:00.307Z,94.14
2018-10-09T09:55:00.238Z,91.39
2018-10-09T09:56:00.144Z,89.99
2018-10-09T09:57:00.055Z,90.37
2018-10-09T09:58:00.045Z,89.79
2018-10-09T09:59:00.175Z,89.95
2018-10-09T09:59:59.820Z,91.49
2018-10-09T10:00:59.722Z,91.78
2018-10-09T10:01:59.639Z,90.57
2018-10-09T10:02:59.548Z,89.79
2018-10-09T10:03:59.475Z,90.53
2018-10-09T10:04:59.399Z,90.81
2018-10-09T10:05:59.296Z,89.75
2018-10-09T10:06:59.214Z,87.96
2018-10-09T10:07:59.129Z,87.04
2018-10-09T10:08:59.051Z,87.66
2018-10-09T10:09:58.978Z,86.89
2018-10-09T10:10:58.879Z,86.41
2018-10-09T10:11:58.795Z,86.25
2018-10-09T10:12:58.711Z,85.05
2018-10-09T10:13:58.630Z,85.98
2018-10-09T10:14:58.566Z,86.94
2018-10-09T10:15:58.463Z,85.53
2018-10-09T10:16:58.380Z,84.71
2018-10-09T10:17:58.300Z,86.31
2018-10-09T10:18:58.215Z,85.49
2018-10-09T10:19:58.146Z,87.09
2018-10-09T10:20:58.048Z,88.65
2018-10-09T10:21:57.969Z,90.43
2018-10-09T10:22:57.883Z,88.78
2018-10-09T10:23:57.798Z,88.29
2018-10-09T10:24:57.732Z,87.19
2018-10-09T10:25:57.634Z,89.65
2018-10-09T10:26:57.557Z,89.56
2018-10-09T10:27:57.467Z,90.33
2018-10-09T10:28:57.420Z,89.99
2018-10-09T10:29:57.318Z,88.25
2018-10-09T10:30:57.220Z,90.43
2018-10-09T10:31:57.133Z,90.91
2018-10-09T10:32:57.052Z,90.62
2018-10-09T10:33:56.970Z,90.28
2018-10-09T10:34:56.905Z,89.56
2018-10-09T10:35:56.803Z,89.56
2018-10-09T10:36:56.716Z,90.58
2018-10-09T10:37:56.633Z,91.25
2018-10-09T10:38:56.556Z,91.16
2018-10-09T10:39:56.486Z,91.06
2018-10-09T10:40:56.384Z,92.89
2018-10-09T10:41:56.307Z,93.47
2018-10-09T10:42:56.221Z,91.93
2018-10-09T10:43:56.135Z,90.38
2018-10-09T10:44:56.070Z,91.35
2018-10-09T10:45:55.971Z,90.38
2018-10-09T10:46:55.884Z,92.02
2018-10-09T10:47:55.801Z,93.04
2018-10-09T10:48:55.767Z,94.00
2018-10-09T10:49:55.647Z,91.39
2018-10-09T10:50:55.550Z,90.72
2018-10-09T10:51:55.465Z,91.01
2018-10-09T10:52:55.384Z,91.30
2018-10-09T10:53:55.297Z,89.95
2018-10-09T10:54:55.263Z,88.69
2018-10-09T10:55:55.129Z,88.02
2018-10-09T10:56:55.046Z,87.63
2018-10-09T10:57:54.963Z,88.45
2018-10-09T10:58:54.878Z,87.97
2018-10-09T10:59:54.809Z,88.65
2018-10-09T11:00:54.710Z,89.37
2018-10-09T11:01:54.671Z,88.65
2018-10-09T11:02:54.547Z,90.48
2018-10-09T11:03:54.462Z,90.83
2018-10-09T11:04:54.392Z,92.27
2018-10-09T11:05:54.290Z,92.66
2018-10-09T11:06:54.207Z,92.32
2018-10-09T11:07:54.168Z,92.66
2018-10-09T11:08:54.036Z,94.78
2018-10-09T11:09:53.973Z,94.39
2018-10-09T11:10:53.868Z,91.69
2018-10-09T11:11:53.790Z,92.52
2018-10-09T11:12:53.802Z,93.77
2018-10-09T11:13:53.612Z,95.69
2018-10-09T11:14:53.530Z,94.06
2018-10-09T11:15:53.460Z,96.37
2018-10-09T11:16:53.357Z,97.72
2018-10-09T11:17:53.274Z,95.89
2018-10-09T11:18:53.185Z,95.17
2018-10-09T11:19:53.117Z,94.59
2018-10-09T11:20:53.013Z,95.94
2018-10-09T11:21:52.930Z,95.84
2018-10-09T11:22:52.850Z,94.59
2018-10-09T11:23:52.761Z,95.65
2018-10-09T11:24:52.676Z,97.19
2018-10-09T11:25:52.605Z,96.51
2018-10-09T11:26:52.605Z,96.46
2018-10-09T11:27:52.412Z,95.74
2018-10-09T11:28:52.326Z,96.08
2018-10-09T11:29:52.245Z,96.61
2018-10-09T11:30:52.175Z,96.22
2018-10-09T11:31:52.092Z,97.19
2018-10-09T11:32:51.981Z,95.84
2018-10-09T11:33:52.001Z,95.21
2018-10-09T11:34:51.812Z,95.60
2018-10-09T11:35:51.743Z,94.73
2018-10-09T11:36:51.638Z,95.69
2018-10-09T11:37:51.552Z,96.56
2018-10-09T11:38:51.467Z,94.87
2018-10-09T11:39:51.378Z,95.36
2018-10-09T11:40:51.416Z,93.57
2018-10-09T11:41:51.210Z,93.09
2018-10-09T11:42:51.164Z,91.30
2018-10-09T11:43:51.035Z,90.24
2018-10-09T11:44:50.961Z,90.48
2018-10-09T11:45:50.875Z,89.81
2018-10-09T11:46:50.776Z,86.08
2018-10-09T11:47:50.792Z,85.80
2018-10-09T11:48:50.647Z,85.30
2018-10-09T11:49:50.520Z,84.14
2018-10-09T11:50:50.446Z,86.36
2018-10-09T11:51:50.377Z,83.37
2018-10-09T11:52:50.259Z,82.50
2018-10-09T11:53:50.191Z,82.83
2018-10-09T11:54:50.211Z,80.80
2018-10-09T11:55:50.023Z,80.99
2018-10-09T11:56:49.974Z,83.41
2018-10-09T11:57:49.836Z,82.68
2018-10-09T11:58:49.752Z,80.11
2018-10-09T11:59:49.665Z,79.57
2018-10-09T12:00:49.596Z,78.99
2018-10-09T12:01:49.609Z,79.85
2018-10-09T12:02:49.464Z,80.88
2018-10-09T12:03:49.329Z,80.84
2018-10-09T12:04:49.248Z,79.91
2018-10-09T12:05:49.291Z,81.65
2018-10-09T12:06:49.077Z,79.74
2018-10-09T12:07:48.991Z,80.99
2018-10-09T12:08:49.014Z,80.80
2018-10-09T12:09:48.824Z,80.36
2018-10-09T12:10:48.761Z,80.40
2018-10-09T12:11:48.660Z,78.85
2018-10-09T12:12:48.573Z,78.56
2018-10-09T12:13:48.493Z,79.27
2018-10-09T12:14:48.409Z,79.58
2018-10-09T12:15:48.516Z,80.49
2018-10-09T12:16:48.250Z,80.84
2018-10-09T12:17:48.158Z,81.57
2018-10-09T12:18:48.075Z,81.96
2018-10-09T12:19:47.993Z,82.15
2018-10-09T12:20:47.933Z,82.89
2018-10-09T12:21:47.831Z,82.48
2018-10-09T12:22:47.851Z,81.13
2018-10-09T12:23:47.669Z,80.94
2018-10-09T12:24:47.581Z,80.59
2018-10-09T12:25:47.514Z,82.00
2018-10-09T12:26:47.415Z,81.90
2018-10-09T12:27:47.332Z,81.62
2018-10-09T12:28:47.246Z,82.62
2018-10-09T12:29:47.273Z,81.50
2018-10-09T12:30:47.102Z,81.12
2018-10-09T12:31:46.999Z,81.98
2018-10-09T12:32:46.960Z,80.67
2018-10-09T12:33:46.837Z,81.30
2018-10-09T12:34:46.752Z,83.31
2018-10-09T12:35:46.686Z,84.25
2018-10-09T12:36:46.590Z,87.93
2018-10-09T12:37:46.503Z,89.61
2018-10-09T12:38:46.420Z,90.00
2018-10-09T12:39:46.337Z,87.09
2018-10-09T12:40:46.269Z,86.82
2018-10-09T12:41:46.174Z,87.93
2018-10-09T12:42:46.090Z,89.47
2018-10-09T12:43:46.013Z,88.21
2018-10-09T12:44:45.921Z,87.29
2018-10-09T12:45:45.858Z,87.09
2018-10-09T12:46:45.755Z,85.59
2018-10-09T12:47:45.673Z,83.41
2018-10-09T12:48:45.583Z,83.99
2018-10-09T12:49:45.592Z,82.83
2018-10-09T12:50:45.437Z,83.95
2018-10-09T12:51:45.335Z,85.55